Whidbey Island Naval Air Station /Ault Field/ Airport
KNUW : now visible

Airfield :











YOU CAN JOIN US ON...

 
LOGIN :

Register | Disclaimer

   EN    FR    IT 

 









Legend :    VFR   Marginal VFR   IFR   Intensive IFR   Very Intensive IFR
Visi :
Ceiling :
>= 8 km
>= 3000ft
5 to 8 km
1000 to 3000 ft
1500m to 5 km
500 to 1000 ft
800 to 1500m
200 to 500 ft
< 800m
< 200 ft
Symbols :   Thunderstorms  Fog  Heavy snow  Heavy precipitations  Wind > 20 kt






- Airport Elevation : 47 ft


KNUW - Whidbey Island Naval Air Station /Ault Field/

CURRENT METAR :
  • 151656Z 14012G20KT 8SM BKN011 OVC030 12/08 A3003 RMK RAB10E24 SLP167 P0000 T01170083

EXPIRED METARs :
  • 151556Z 13013KT 8SM SCT009 BKN012 OVC070 11/08 A2998 RMK PK WND 14026/1503 RAE05 SLP152 P0000 T01110078
  • 151509Z 15019G26KT 8SM BKN018 BKN070 OVC120 11/08 A2997 RMK PK WND 14026/1503 RAE03 P0000 TO1110078

TAF COR TAF KNUW
Valid from the 15 at 15:00 until the 16 at 15:00 UTC


1515/1615 15018G30KT 9999 VCSH SCT012 OVC060 OVC120 651009 520006 540609 QNH2994INS
TEMPO 1515/1518 15014G24KT 9000 BR SCT007 BKN010 OVC050
FM151800 19010KT 9999 VCSH SCT020 BKN030 BKN120 650809 500000 QNH3003INS
TEMPO 1520/1602 22008KT 6000 -SHRA BKN012 OVC050
FM160600 VRB06KT 9000 BR FEW008 BKN020 BKN100 650609 QNH3012INS
TEMPO 1609/1615 16010KT 4800 BR BKN008 OVC018 T14/1523Z T06/1613Z COR 1540 FS30004



MET'MAP, your aeronautical weather chart ! - Copyright ORBIFLY December 2007 - Disclaimer

ORBIFLY MET'MAP TEAM :

Programming & Development : Alexandra Zaïnal
Concept & Development : Baudouin d'Aumeries
Co-Development & Prog : Marc-Olivier Méhu
Technical & hardware support : Manuel Goepfert

Contact : metmap@orbifly.com




SOURCES & CREDITS :

   NOAA       Earth
Advisory